createdAt,value
2023-03-16T00:02:15.304Z,92.00
2023-03-16T00:04:42.099Z,92.10
2023-03-16T00:07:10.844Z,92.10
2023-03-16T00:09:41.239Z,92.00
2023-03-16T00:12:16.847Z,92.10
2023-03-16T00:14:48.396Z,92.10
2023-03-16T00:17:20.734Z,92.30
2023-03-16T00:19:55.112Z,92.50
2023-03-16T00:22:24.472Z,92.20
2023-03-16T00:24:52.729Z,92.50
2023-03-16T00:27:22.706Z,92.30
2023-03-16T00:29:55.616Z,92.50
2023-03-16T00:32:34.521Z,92.60
2023-03-16T00:35:02.460Z,92.40
2023-03-16T00:37:29.725Z,92.40
2023-03-16T00:39:56.903Z,92.50
2023-03-16T00:42:29.507Z,92.50
2023-03-16T00:45:00.129Z,92.40
2023-03-16T00:47:29.052Z,92.70
2023-03-16T00:49:56.782Z,92.50
2023-03-16T00:52:23.681Z,92.60
2023-03-16T00:54:54.092Z,92.60
2023-03-16T00:57:22.844Z,92.60
2023-03-16T00:59:49.837Z,92.70
2023-03-16T01:02:19.404Z,92.70
2023-03-16T01:04:46.213Z,92.70
2023-03-16T01:07:14.252Z,92.60
2023-03-16T01:09:42.823Z,92.80
2023-03-16T01:12:13.380Z,92.60
2023-03-16T01:14:41.244Z,92.70
2023-03-16T01:17:09.336Z,92.70
2023-03-16T01:19:37.634Z,92.70
2023-03-16T01:22:06.354Z,92.80
2023-03-16T01:24:37.436Z,92.90
2023-03-16T01:27:05.399Z,93.20
2023-03-16T01:29:33.144Z,92.80
2023-03-16T01:32:01.360Z,93.00
2023-03-16T01:34:28.630Z,93.00
2023-03-16T01:36:55.829Z,92.90
2023-03-16T01:39:22.697Z,93.00
2023-03-16T01:41:49.989Z,92.90
2023-03-16T01:44:20.347Z,92.80
2023-03-16T01:46:47.107Z,92.80
2023-03-16T01:49:28.684Z,92.80
2023-03-16T01:52:08.662Z,92.80
2023-03-16T01:54:40.144Z,92.70
2023-03-16T01:57:19.521Z,92.80
2023-03-16T01:59:52.003Z,92.90
2023-03-16T02:02:22.624Z,92.80
2023-03-16T02:05:12.674Z,92.80
2023-03-16T02:07:47.804Z,92.70
2023-03-16T02:10:16.977Z,92.60
2023-03-16T02:12:44.421Z,93.00
2023-03-16T02:15:13.491Z,92.80
2023-03-16T02:17:43.320Z,92.90
2023-03-16T02:20:44.394Z,92.80
2023-03-16T02:23:24.184Z,92.70
2023-03-16T02:26:05.917Z,92.80
2023-03-16T02:28:48.085Z,92.80
2023-03-16T02:31:17.203Z,92.90
2023-03-16T02:33:46.146Z,92.90
2023-03-16T02:36:14.791Z,92.80
2023-03-16T02:38:41.597Z,92.80
2023-03-16T02:41:18.103Z,93.30
2023-03-16T02:43:50.106Z,93.10
2023-03-16T02:46:17.910Z,93.10
2023-03-16T02:48:57.977Z,93.00
2023-03-16T02:51:24.807Z,93.00
2023-03-16T02:53:51.622Z,92.80
2023-03-16T02:56:18.457Z,92.90
2023-03-16T02:58:45.273Z,93.00
2023-03-16T03:01:12.125Z,93.20
2023-03-16T03:03:38.994Z,93.20
2023-03-16T03:06:06.393Z,93.20
2023-03-16T03:08:33.360Z,93.40
2023-03-16T03:11:00.237Z,93.40
2023-03-16T03:13:27.152Z,93.30
2023-03-16T03:15:53.991Z,93.40
2023-03-16T03:18:20.794Z,93.40
2023-03-16T03:20:47.555Z,93.50
2023-03-16T03:23:15.451Z,93.40
2023-03-16T03:25:42.725Z,93.40
2023-03-16T03:28:09.588Z,93.50
2023-03-16T03:30:37.186Z,93.40
2023-03-16T03:33:04.108Z,93.50
2023-03-16T03:35:31.789Z,93.50
2023-03-16T03:37:58.646Z,93.50
2023-03-16T03:40:25.490Z,93.70
2023-03-16T03:42:52.437Z,93.60
2023-03-16T03:45:19.349Z,93.50
2023-03-16T03:47:46.151Z,93.80
2023-03-16T03:50:14.118Z,93.80
2023-03-16T03:52:41.340Z,93.80
2023-03-16T03:55:09.478Z,93.90
2023-03-16T03:57:36.337Z,93.70
2023-03-16T04:00:08.353Z,93.80
2023-03-16T04:02:35.508Z,93.80
2023-03-16T04:05:02.604Z,93.80
2023-03-16T04:07:29.358Z,93.70
2023-03-16T04:09:56.156Z,93.80
2023-03-16T04:12:23.231Z,93.90
2023-03-16T04:14:50.113Z,93.80
2023-03-16T04:17:17.098Z,93.80
2023-03-16T04:19:44.115Z,93.70
2023-03-16T04:22:11.012Z,93.80
2023-03-16T04:24:37.818Z,94.00
2023-03-16T04:27:04.805Z,93.80
2023-03-16T04:29:32.078Z,93.90
2023-03-16T04:31:58.866Z,93.90
2023-03-16T04:34:25.750Z,93.90
2023-03-16T04:36:53.185Z,94.00
2023-03-16T04:39:21.285Z,94.00
2023-03-16T04:41:48.337Z,93.80
2023-03-16T04:44:15.483Z,94.00
2023-03-16T04:46:42.479Z,94.10
2023-03-16T04:49:09.879Z,94.30
2023-03-16T04:51:37.992Z,94.00
2023-03-16T04:54:04.887Z,94.10
2023-03-16T04:56:31.658Z,94.10
2023-03-16T04:58:58.450Z,94.10
2023-03-16T05:01:25.270Z,94.00
2023-03-16T05:03:52.909Z,94.10
2023-03-16T05:06:19.777Z,94.00
2023-03-16T05:08:46.521Z,94.00
2023-03-16T05:11:13.251Z,94.10
2023-03-16T05:13:40.008Z,94.10
2023-03-16T05:16:07.422Z,94.10
2023-03-16T05:18:34.288Z,94.00
2023-03-16T05:21:01.062Z,94.30
2023-03-16T05:23:27.841Z,94.20
2023-03-16T05:25:54.572Z,94.30
2023-03-16T05:28:21.328Z,94.40
2023-03-16T05:30:48.172Z,94.30
2023-03-16T05:33:14.968Z,94.50
2023-03-16T05:35:43.173Z,94.60
2023-03-16T05:38:10.112Z,94.80
2023-03-16T05:40:37.382Z,94.60
2023-03-16T05:43:04.635Z,94.70
2023-03-16T05:45:31.419Z,95.20
2023-03-16T05:47:58.234Z,94.90
2023-03-16T05:50:26.626Z,94.90
2023-03-16T05:52:54.227Z,94.80
2023-03-16T05:55:21.051Z,94.70
2023-03-16T05:57:47.813Z,95.00
2023-03-16T06:00:16.694Z,95.00
2023-03-16T06:02:47.579Z,95.00
2023-03-16T06:05:14.837Z,94.90
2023-03-16T06:07:41.847Z,95.00
2023-03-16T06:10:10.278Z,95.00
2023-03-16T06:12:37.023Z,95.00
2023-03-16T06:15:07.833Z,95.00
2023-03-16T06:17:35.723Z,95.00
2023-03-16T06:20:05.468Z,95.00
2023-03-16T06:22:32.228Z,95.00
2023-03-16T06:24:58.986Z,95.00
2023-03-16T06:27:26.623Z,95.00
2023-03-16T06:29:53.430Z,95.00
2023-03-16T06:32:21.970Z,95.00
2023-03-16T06:34:49.068Z,95.30
2023-03-16T06:37:15.840Z,94.90
2023-03-16T06:39:42.668Z,95.00
2023-03-16T06:42:09.441Z,94.90
2023-03-16T06:44:36.253Z,95.10
2023-03-16T06:47:04.105Z,95.10
2023-03-16T06:49:31.344Z,95.00
2023-03-16T06:51:58.755Z,95.00
2023-03-16T06:54:25.615Z,95.10
2023-03-16T06:56:52.432Z,95.10
2023-03-16T06:59:19.221Z,95.20
2023-03-16T07:01:46.035Z,95.20
2023-03-16T07:04:12.911Z,95.20
2023-03-16T07:06:39.745Z,95.40
2023-03-16T07:09:06.545Z,95.10
2023-03-16T07:11:33.357Z,95.10
2023-03-16T07:14:00.450Z,95.00
2023-03-16T07:16:27.511Z,94.90
2023-03-16T07:18:54.568Z,94.90
2023-03-16T07:21:21.836Z,95.00
2023-03-16T07:23:48.731Z,95.10
2023-03-16T07:26:15.488Z,94.80
2023-03-16T07:28:42.301Z,94.80
2023-03-16T07:31:09.558Z,94.90
2023-03-16T07:33:36.697Z,94.90
2023-03-16T07:36:04.537Z,94.90
2023-03-16T07:38:32.598Z,94.90
2023-03-16T07:41:02.494Z,94.70
2023-03-16T07:43:29.530Z,94.80
2023-03-16T07:45:56.517Z,94.80
2023-03-16T07:48:23.419Z,94.50
2023-03-16T07:50:50.401Z,94.60
2023-03-16T07:53:17.945Z,94.90
2023-03-16T07:55:45.157Z,94.80
2023-03-16T07:58:12.585Z,94.80
2023-03-16T08:00:39.946Z,94.90
2023-03-16T08:03:06.983Z,94.90
2023-03-16T08:05:34.022Z,94.90
2023-03-16T08:08:03.891Z,94.80
2023-03-16T08:10:31.489Z,94.70
2023-03-16T08:12:58.603Z,94.70
2023-03-16T08:15:25.389Z,94.70
2023-03-16T08:17:52.675Z,94.60
2023-03-16T08:20:19.633Z,94.60
2023-03-16T08:22:46.867Z,94.60
2023-03-16T08:25:15.014Z,94.30
2023-03-16T08:27:42.907Z,94.10
2023-03-16T08:30:11.987Z,94.00
2023-03-16T08:32:40.106Z,94.10
2023-03-16T08:35:14.031Z,94.00
2023-03-16T08:37:41.597Z,93.70
2023-03-16T08:40:10.827Z,93.90
2023-03-16T08:42:41.335Z,93.40
2023-03-16T08:45:14.209Z,93.20
2023-03-16T08:47:41.804Z,93.20
2023-03-16T08:50:09.774Z,93.60
2023-03-16T08:52:36.704Z,93.80
2023-03-16T08:55:05.796Z,93.90
2023-03-16T08:57:33.495Z,93.90
2023-03-16T09:00:00.344Z,93.50
2023-03-16T09:02:27.618Z,93.50
2023-03-16T09:04:54.775Z,93.50
2023-03-16T09:07:21.986Z,93.80
2023-03-16T09:09:48.802Z,94.00
2023-03-16T09:12:15.534Z,94.00
2023-03-16T09:14:42.316Z,93.90
2023-03-16T09:17:09.806Z,94.00
2023-03-16T09:19:53.934Z,93.90
2023-03-16T09:22:22.305Z,93.90
2023-03-16T09:24:49.692Z,93.40
2023-03-16T09:27:17.185Z,92.90
2023-03-16T09:29:45.415Z,92.50
2023-03-16T09:32:14.198Z,92.50
2023-03-16T09:34:41.659Z,92.70
2023-03-16T09:37:09.703Z,92.10
2023-03-16T09:39:37.103Z,91.90
2023-03-16T09:42:32.635Z,91.90
2023-03-16T09:45:37.006Z,91.80
2023-03-16T09:48:05.740Z,92.10
2023-03-16T09:50:48.293Z,92.00
2023-03-16T09:53:29.700Z,92.00
2023-03-16T09:56:04.419Z,91.90
2023-03-16T09:58:34.808Z,92.00
2023-03-16T10:01:28.887Z,91.80
2023-03-16T10:04:16.374Z,91.40
2023-03-16T10:07:06.647Z,91.30
2023-03-16T10:09:39.712Z,91.20
2023-03-16T10:12:08.744Z,90.80
2023-03-16T10:14:54.168Z,90.40
2023-03-16T10:17:26.607Z,90.10
2023-03-16T10:20:00.134Z,90.40
2023-03-16T10:22:34.882Z,90.30
2023-03-16T10:25:27.958Z,89.70
2023-03-16T10:27:54.797Z,89.20
2023-03-16T10:30:24.838Z,88.40
2023-03-16T10:32:52.480Z,88.40
2023-03-16T10:35:41.545Z,88.20
2023-03-16T10:38:50.738Z,88.60
2023-03-16T10:41:23.080Z,87.80
2023-03-16T10:44:09.076Z,87.20
2023-03-16T10:46:48.653Z,87.60
2023-03-16T10:49:27.157Z,85.90
2023-03-16T10:51:59.568Z,83.70
2023-03-16T10:54:35.699Z,83.20
2023-03-16T10:57:19.249Z,84.50
2023-03-16T10:59:49.696Z,83.50
2023-03-16T11:02:20.767Z,82.90
2023-03-16T11:04:48.019Z,81.90
2023-03-16T11:07:20.740Z,82.20
2023-03-16T11:09:48.672Z,82.40
2023-03-16T11:12:26.176Z,82.80
2023-03-16T11:14:54.131Z,83.40
2023-03-16T11:17:44.942Z,83.90
2023-03-16T11:20:23.393Z,84.60
2023-03-16T11:22:51.193Z,83.90
2023-03-16T11:25:45.597Z,84.30
2023-03-16T11:28:18.409Z,79.30
2023-03-16T11:31:10.997Z,76.00
2023-03-16T11:33:38.063Z,78.40
2023-03-16T11:36:33.306Z,79.10
2023-03-16T11:39:31.779Z,80.00
2023-03-16T11:42:04.207Z,81.10
2023-03-16T11:44:55.808Z,82.00
2023-03-16T11:48:06.764Z,83.10
2023-03-16T11:50:45.816Z,83.70
2023-03-16T11:53:24.321Z,84.20
2023-03-16T11:56:09.879Z,84.40
2023-03-16T11:58:52.920Z,84.70
2023-03-16T12:01:32.485Z,84.30
2023-03-16T12:04:07.542Z,84.50
2023-03-16T12:06:47.131Z,85.10
2023-03-16T12:09:54.094Z,85.70
2023-03-16T12:12:53.576Z,86.30
2023-03-16T12:15:36.130Z,85.80
2023-03-16T12:18:43.706Z,84.90
2023-03-16T12:21:33.206Z,86.00
2023-03-16T12:24:04.091Z,86.30
2023-03-16T12:26:40.304Z,86.30
2023-03-16T12:29:41.564Z,85.30
2023-03-16T12:32:40.812Z,83.60
2023-03-16T12:35:34.103Z,83.10
2023-03-16T12:38:12.748Z,83.90
2023-03-16T12:41:09.690Z,84.30
2023-03-16T12:43:46.934Z,84.50
2023-03-16T12:46:19.438Z,84.30
2023-03-16T12:49:01.217Z,84.10
2023-03-16T12:51:40.091Z,84.20
2023-03-16T12:54:18.536Z,84.50
2023-03-16T12:56:47.605Z,83.70
2023-03-16T12:59:22.929Z,83.70
2023-03-16T13:01:58.557Z,84.10
2023-03-16T13:04:40.391Z,83.30
2023-03-16T13:07:18.199Z,83.70
2023-03-16T13:09:59.991Z,83.60
2023-03-16T13:12:38.959Z,83.60
2023-03-16T13:15:17.989Z,83.40
2023-03-16T13:17:45.708Z,83.80
2023-03-16T13:20:31.400Z,83.50
2023-03-16T13:23:09.672Z,82.30
2023-03-16T13:25:45.833Z,81.60
2023-03-16T13:28:17.283Z,81.80
2023-03-16T13:30:49.049Z,81.30
2023-03-16T13:33:28.258Z,81.50
2023-03-16T13:35:57.539Z,81.40
2023-03-16T13:38:27.582Z,80.70
2023-03-16T13:40:58.341Z,81.20
2023-03-16T13:43:32.892Z,80.90
2023-03-16T13:45:59.960Z,80.10
2023-03-16T13:48:26.784Z,79.80
2023-03-16T13:50:58.968Z,80.20
2023-03-16T13:53:29.563Z,80.30
2023-03-16T13:55:58.214Z,81.20
2023-03-16T13:58:32.136Z,80.80
2023-03-16T14:01:02.342Z,80.60
2023-03-16T14:03:36.120Z,80.70
2023-03-16T14:06:05.067Z,80.50
2023-03-16T14:08:33.910Z,81.00
2023-03-16T14:11:01.714Z,81.10
2023-03-16T14:13:29.201Z,81.40
2023-03-16T14:16:01.171Z,81.10
2023-03-16T14:18:37.274Z,79.30
2023-03-16T14:21:15.101Z,77.50
2023-03-16T14:23:45.107Z,76.30
2023-03-16T14:26:15.240Z,75.40
2023-03-16T14:29:06.302Z,75.50
2023-03-16T14:31:38.708Z,74.30
2023-03-16T14:34:20.017Z,74.50
2023-03-16T14:36:47.151Z,74.40
2023-03-16T14:39:16.981Z,74.50
2023-03-16T14:41:45.382Z,74.90
2023-03-16T14:44:24.520Z,75.80
2023-03-16T14:46:54.192Z,77.00
2023-03-16T14:49:23.622Z,77.60
2023-03-16T14:51:54.115Z,78.40
2023-03-16T14:54:26.075Z,77.80
2023-03-16T14:57:05.204Z,77.80
2023-03-16T14:59:33.132Z,78.30
2023-03-16T15:02:03.276Z,78.60
2023-03-16T15:04:34.328Z,78.50
2023-03-16T15:07:07.107Z,78.90
2023-03-16T15:09:40.296Z,78.80
2023-03-16T15:12:19.684Z,78.90
2023-03-16T15:15:06.251Z,78.70
2023-03-16T15:17:33.616Z,78.90
2023-03-16T15:20:00.420Z,79.00
2023-03-16T15:22:33.042Z,79.20
2023-03-16T15:25:18.137Z,79.40
2023-03-16T15:27:45.112Z,79.70
2023-03-16T15:30:20.740Z,81.10
2023-03-16T15:32:48.339Z,81.20
2023-03-16T15:35:16.523Z,82.00
2023-03-16T15:37:43.777Z,82.20
2023-03-16T15:40:23.893Z,82.40
2023-03-16T15:42:51.712Z,82.30
2023-03-16T15:45:21.377Z,82.50
2023-03-16T15:47:53.288Z,81.70
2023-03-16T15:50:22.427Z,82.30
2023-03-16T15:52:58.145Z,82.00
2023-03-16T15:55:35.504Z,81.50
2023-03-16T15:58:03.673Z,81.50
2023-03-16T16:00:34.978Z,79.30
2023-03-16T16:03:03.389Z,79.30
2023-03-16T16:05:31.103Z,78.90
2023-03-16T16:07:58.746Z,78.50
2023-03-16T16:10:27.167Z,78.60
2023-03-16T16:12:55.833Z,78.40
2023-03-16T16:15:31.944Z,78.40
2023-03-16T16:18:19.837Z,78.00
2023-03-16T16:20:46.108Z,77.10
2023-03-16T16:23:13.981Z,77.20
2023-03-16T16:25:42.153Z,76.70
2023-03-16T16:28:24.446Z,76.30
2023-03-16T16:30:51.368Z,75.60
2023-03-16T16:33:37.015Z,74.70
2023-03-16T16:36:19.156Z,75.00
2023-03-16T16:38:49.666Z,76.00
2023-03-16T16:41:32.802Z,76.80
2023-03-16T16:44:05.247Z,78.30
2023-03-16T16:46:36.855Z,79.10
2023-03-16T16:49:11.168Z,79.50
2023-03-16T16:51:38.887Z,79.60
2023-03-16T16:54:18.388Z,79.50
2023-03-16T16:56:46.600Z,79.50
2023-03-16T16:59:18.435Z,79.70
2023-03-16T17:01:47.013Z,79.50
2023-03-16T17:04:19.065Z,79.60
2023-03-16T17:06:46.949Z,79.60
2023-03-16T17:09:14.454Z,79.30
2023-03-16T17:11:42.786Z,79.10
2023-03-16T17:14:16.037Z,79.50
2023-03-16T17:16:43.269Z,79.50
2023-03-16T17:19:21.292Z,79.70
2023-03-16T17:21:48.812Z,80.50
2023-03-16T17:24:16.802Z,79.90
2023-03-16T17:26:52.282Z,80.00
2023-03-16T17:29:23.047Z,80.00
2023-03-16T17:31:50.637Z,80.20
2023-03-16T17:34:23.817Z,81.50
2023-03-16T17:36:51.345Z,80.90
2023-03-16T17:39:26.319Z,81.30
2023-03-16T17:42:06.257Z,81.50
2023-03-16T17:44:41.978Z,81.70
2023-03-16T17:47:15.210Z,81.90
2023-03-16T17:49:42.304Z,82.00
2023-03-16T17:52:18.831Z,81.90
2023-03-16T17:54:47.151Z,82.30
2023-03-16T17:57:18.148Z,82.50
2023-03-16T17:59:46.864Z,82.60
2023-03-16T18:02:37.391Z,82.50
2023-03-16T18:05:05.646Z,83.00
2023-03-16T18:07:32.531Z,83.30
2023-03-16T18:09:59.414Z,83.00
2023-03-16T18:12:27.307Z,83.30
2023-03-16T18:14:58.559Z,83.40
2023-03-16T18:17:33.705Z,83.40
2023-03-16T18:20:00.557Z,83.40
2023-03-16T18:22:27.940Z,83.20
2023-03-16T18:24:56.112Z,83.90
2023-03-16T18:27:22.935Z,84.10
2023-03-16T18:29:49.761Z,84.40
2023-03-16T18:32:27.473Z,84.70
2023-03-16T18:34:54.837Z,84.90
2023-03-16T18:37:27.929Z,84.80
2023-03-16T18:39:55.279Z,84.70
2023-03-16T18:42:27.820Z,85.30
2023-03-16T18:44:54.749Z,85.40
2023-03-16T18:47:31.435Z,85.60
2023-03-16T18:49:58.646Z,85.50
2023-03-16T18:52:30.224Z,85.50
2023-03-16T18:54:58.256Z,85.70
2023-03-16T18:57:28.064Z,86.00
2023-03-16T18:59:55.382Z,86.00
2023-03-16T19:02:31.228Z,85.90
2023-03-16T19:05:02.154Z,86.40
2023-03-16T19:07:36.524Z,86.50
2023-03-16T19:10:13.611Z,86.60
2023-03-16T19:12:40.340Z,86.90
2023-03-16T19:15:14.949Z,87.50
2023-03-16T19:17:42.120Z,87.30
2023-03-16T19:20:10.640Z,87.30
2023-03-16T19:22:37.405Z,87.60
2023-03-16T19:25:04.616Z,88.00
2023-03-16T19:27:36.943Z,88.40
2023-03-16T19:30:05.323Z,88.20
2023-03-16T19:32:32.234Z,88.00
2023-03-16T19:34:59.281Z,88.40
2023-03-16T19:37:26.706Z,88.40
2023-03-16T19:39:53.488Z,88.70
2023-03-16T19:42:22.010Z,88.90
2023-03-16T19:44:50.408Z,89.10
2023-03-16T19:47:34.990Z,89.40
2023-03-16T19:50:01.985Z,89.30
2023-03-16T19:52:31.300Z,89.50
2023-03-16T19:54:58.141Z,89.90
2023-03-16T19:57:25.440Z,89.40
2023-03-16T19:59:57.479Z,89.50
2023-03-16T20:02:43.222Z,89.60
2023-03-16T20:05:17.642Z,89.50
2023-03-16T20:07:44.453Z,89.70
2023-03-16T20:10:18.262Z,89.50
2023-03-16T20:12:46.275Z,89.40
2023-03-16T20:15:17.886Z,90.00
2023-03-16T20:17:45.316Z,89.70
2023-03-16T20:20:30.376Z,89.60
2023-03-16T20:22:59.651Z,89.90
2023-03-16T20:25:31.570Z,90.30
2023-03-16T20:28:02.082Z,89.90
2023-03-16T20:30:30.701Z,89.70
2023-03-16T20:32:58.219Z,89.80
2023-03-16T20:35:28.985Z,89.50
2023-03-16T20:37:56.230Z,89.40
2023-03-16T20:40:23.730Z,89.90
2023-03-16T20:42:52.622Z,89.70
2023-03-16T20:45:27.955Z,89.50
2023-03-16T20:47:55.189Z,89.30
2023-03-16T20:50:25.919Z,89.70
2023-03-16T20:52:54.153Z,89.60
2023-03-16T20:55:25.298Z,89.60
2023-03-16T20:57:53.780Z,89.90
2023-03-16T21:00:34.734Z,89.50
2023-03-16T21:03:05.009Z,89.50
2023-03-16T21:05:32.170Z,90.20
2023-03-16T21:07:59.067Z,90.00
2023-03-16T21:10:27.934Z,90.00
2023-03-16T21:12:57.033Z,90.20
2023-03-16T21:15:23.810Z,90.10
2023-03-16T21:17:56.747Z,90.00
2023-03-16T21:20:28.374Z,89.60
2023-03-16T21:22:56.280Z,89.40
2023-03-16T21:25:32.396Z,89.60
2023-03-16T21:28:02.509Z,89.60
2023-03-16T21:30:42.936Z,89.60
2023-03-16T21:33:18.762Z,89.80
2023-03-16T21:35:45.801Z,90.00
2023-03-16T21:38:15.905Z,89.90
2023-03-16T21:40:43.822Z,90.00
2023-03-16T21:43:12.048Z,90.00
2023-03-16T21:45:39.402Z,90.10
2023-03-16T21:48:06.965Z,89.40
2023-03-16T21:50:36.702Z,89.10
2023-03-16T21:53:04.441Z,89.70
2023-03-16T21:55:31.637Z,90.10
2023-03-16T21:57:59.747Z,90.20
2023-03-16T22:00:29.142Z,90.40
2023-03-16T22:02:58.755Z,90.40
2023-03-16T22:05:35.772Z,90.30
2023-03-16T22:08:14.914Z,90.30
2023-03-16T22:10:42.079Z,90.40
2023-03-16T22:13:09.748Z,90.20
2023-03-16T22:15:37.954Z,90.30
2023-03-16T22:18:16.345Z,90.40
2023-03-16T22:20:43.203Z,90.70
2023-03-16T22:23:27.689Z,90.60
2023-03-16T22:25:54.595Z,90.60
2023-03-16T22:28:21.367Z,90.50
2023-03-16T22:30:48.519Z,90.60
2023-03-16T22:33:20.835Z,90.90
2023-03-16T22:35:48.193Z,91.30
2023-03-16T22:38:16.535Z,91.40
2023-03-16T22:40:43.752Z,91.50
2023-03-16T22:43:17.594Z,91.40
2023-03-16T22:45:44.448Z,91.30
2023-03-16T22:48:29.192Z,91.40
2023-03-16T22:51:00.708Z,91.60
2023-03-16T22:53:42.007Z,91.80
2023-03-16T22:56:10.413Z,91.60
2023-03-16T22:58:40.177Z,91.40
2023-03-16T23:01:17.130Z,91.30
2023-03-16T23:03:49.630Z,91.50
2023-03-16T23:06:28.912Z,91.50
2023-03-16T23:08:56.284Z,91.60
2023-03-16T23:11:28.468Z,91.40
2023-03-16T23:13:55.991Z,91.40
2023-03-16T23:16:29.634Z,91.40
2023-03-16T23:18:56.805Z,91.40
2023-03-16T23:21:26.405Z,91.80
2023-03-16T23:24:03.552Z,91.60
2023-03-16T23:26:31.126Z,91.70
2023-03-16T23:28:58.453Z,91.70
2023-03-16T23:31:27.264Z,91.70
2023-03-16T23:33:54.475Z,91.70
2023-03-16T23:36:24.872Z,91.90
2023-03-16T23:38:51.953Z,92.10
2023-03-16T23:41:22.199Z,92.30
2023-03-16T23:43:50.325Z,92.20
2023-03-16T23:46:22.846Z,92.40
2023-03-16T23:48:51.436Z,92.40
2023-03-16T23:51:37.931Z,92.30
2023-03-16T23:54:23.531Z,92.00
2023-03-16T23:56:50.950Z,92.10
2023-03-16T23:59:19.312Z,92.30
